Time;durP1;ratioP1;P1;durP2;ratioP2;P2;SDS_P1;SDS_P2;PMS_P1;PMS_P2;Temp;Humidity;BMP_temperature;BMP_pressure;BME280_temperature;BME280_humidity;BME280_pressure;Samples;Min_cycle;Max_cycle;Signal;HPM_P1;HPM_P2
2022/08/23 00:01:19;;;;;;;9.95;6.78;;;;;;;17.11;100.00;96182.73;1778625;79;21327;-84
2022/08/23 00:03:45;;;;;;;9.13;6.73;;;;;;;17.10;100.00;96177.20;1780419;79;21058;-84
2022/08/23 00:06:12;;;;;;;10.85;7.42;;;;;;;17.10;100.00;96185.06;1733096;82;20994;-83
2022/08/23 00:08:39;;;;;;;10.03;7.17;;;;;;;17.12;100.00;96182.22;1716138;81;21028;-84
2022/08/23 00:11:06;;;;;;;10.50;6.47;;;;;;;17.08;100.00;96181.84;1726872;81;20979;-84
2022/08/23 00:13:32;;;;;;;8.75;7.17;;;;;;;17.08;100.00;96180.05;1678288;83;20926;-84
2022/08/23 00:15:59;;;;;;;9.25;7.08;;;;;;;17.08;100.00;96180.05;1695482;83;20995;-84
2022/08/23 00:18:25;;;;;;;8.28;6.42;;;;;;;17.05;100.00;96179.68;1665995;84;20956;-84
2022/08/23 00:20:51;;;;;;;9.45;7.95;;;;;;;17.04;100.00;96180.20;1715198;81;20955;-84
2022/08/23 00:23:16;;;;;;;9.10;7.17;;;;;;;17.05;100.00;96191.49;1684430;84;21012;-84
2022/08/23 00:25:42;;;;;;;11.30;8.80;;;;;;;17.04;100.00;96189.89;1715839;82;21332;-84
2022/08/23 00:28:08;;;;;;;10.88;8.55;;;;;;;17.04;100.00;96197.77;1697987;82;21039;-84
2022/08/23 00:30:34;;;;;;;10.75;8.75;;;;;;;17.01;100.00;96195.09;1704689;83;21062;-83
2022/08/23 00:33:00;;;;;;;10.48;8.88;;;;;;;17.00;100.00;96196.11;1704724;84;20955;-84
2022/08/23 00:35:26;;;;;;;10.30;8.40;;;;;;;17.00;100.00;96199.25;1726529;81;21003;-84
2022/08/23 00:37:53;;;;;;;12.30;8.50;;;;;;;17.00;100.00;96195.31;1696608;82;21092;-84
2022/08/23 00:40:19;;;;;;;12.88;8.13;;;;;;;16.97;100.00;96203.13;1691294;82;21003;-84
2022/08/23 00:48:52;;;;;;;9.83;8.10;;;;;;;16.91;100.00;96205.84;1717560;82;21475;-83
2022/08/23 00:51:28;;;;;;;10.95;9.43;;;;;;;16.91;100.00;96192.20;1695573;84;20955;-84
2022/08/23 00:53:57;;;;;;;12.78;9.45;;;;;;;16.93;100.00;96198.57;1691037;83;21049;-83
2022/08/23 00:56:24;;;;;;;12.95;9.45;;;;;;;16.94;100.00;96195.72;1729006;82;21353;-83
2022/08/23 00:58:50;;;;;;;14.65;8.93;;;;;;;16.93;100.00;96186.25;1690346;84;21012;-83
2022/08/23 01:01:16;;;;;;;11.22;9.38;;;;;;;16.91;100.00;96193.52;1659756;84;21083;-83
2022/08/23 01:03:43;;;;;;;15.63;9.73;;;;;;;16.91;100.00;96204.53;1714554;82;21024;-84
2022/08/23 01:06:17;;;;;;;15.08;10.48;;;;;;;16.93;100.00;96205.13;1735038;81;20937;-84
2022/08/23 01:08:47;;;;;;;14.95;10.90;;;;;;;16.93;100.00;96202.51;1736571;81;21022;-84
2022/08/23 01:11:27;;;;;;;11.25;9.05;;;;;;;16.92;100.00;96198.26;1734344;81;21012;-84
2022/08/23 01:14:00;;;;;;;13.22;9.95;;;;;;;16.93;100.00;96206.45;1732290;82;20960;-84
2022/08/23 01:16:32;;;;;;;13.75;10.70;;;;;;;16.95;100.00;96210.95;1727995;81;21003;-83
2022/08/23 01:18:59;;;;;;;17.10;10.25;;;;;;;16.93;100.00;96206.45;1735565;82;20993;-84
2022/08/23 01:21:34;;;;;;;15.35;9.33;;;;;;;16.92;100.00;96206.95;1736789;81;20982;-84
2022/08/23 01:24:02;;;;;;;11.48;9.15;;;;;;;16.93;100.00;96210.38;1734824;81;20988;-82
2022/08/23 01:26:30;;;;;;;14.87;10.23;;;;;;;16.93;100.00;96209.87;1730046;81;20961;-81
2022/08/23 01:28:55;;;;;;;11.45;8.85;;;;;;;16.94;100.00;96206.73;1707447;82;21003;-81
2022/08/23 01:31:21;;;;;;;11.90;8.18;;;;;;;16.94;100.00;96209.36;1717660;82;20953;-81
2022/08/23 01:33:52;;;;;;;11.75;8.23;;;;;;;16.93;100.00;96207.24;1715291;82;21035;-81
2022/08/23 01:36:18;;;;;;;12.45;9.10;;;;;;;16.94;100.00;96203.59;1713803;82;21471;-81
2022/08/23 01:38:43;;;;;;;11.88;8.40;;;;;;;16.96;100.00;96209.92;1740641;81;21038;-81
2022/08/23 01:41:09;;;;;;;9.88;7.95;;;;;;;16.97;100.00;96203.65;1721041;81;20935;-81
2022/08/23 01:43:35;;;;;;;11.40;8.48;;;;;;;16.98;100.00;96202.63;1719607;81;20970;-80
2022/08/23 01:46:11;;;;;;;12.58;8.03;;;;;;;16.99;100.00;96198.97;1738490;80;21025;-81
2022/08/23 01:48:36;;;;;;;11.45;8.15;;;;;;;16.96;100.00;96200.23;1721378;82;20999;-82
2022/08/23 01:51:02;;;;;;;10.72;8.15;;;;;;;16.92;100.00;96200.40;1738147;81;20996;-83
2022/08/23 01:53:28;;;;;;;10.13;7.22;;;;;;;16.94;100.00;96208.04;1727742;82;22234;-83
2022/08/23 01:55:54;;;;;;;11.03;8.33;;;;;;;16.95;100.00;96200.45;1720996;81;21036;-83
2022/08/23 01:58:20;;;;;;;10.88;6.90;;;;;;;16.95;100.00;96201.77;1730388;81;21018;-83
2022/08/23 02:00:46;;;;;;;9.58;6.55;;;;;;;16.95;100.00;96193.38;1717704;81;21043;-83
2022/08/23 02:03:12;;;;;;;9.30;6.30;;;;;;;16.96;100.00;96195.48;1720385;83;21008;-82
2022/08/23 02:05:41;;;;;;;6.75;5.20;;;;;;;16.98;100.00;96193.44;1728045;81;20995;-82
2022/08/23 02:10:51;;;;;;;9.58;5.95;;;;;;;17.01;100.00;96202.96;1707122;81;21089;-83
2022/08/23 02:13:17;;;;;;;8.85;7.22;;;;;;;16.97;100.00;96204.96;1717183;82;21407;-83
2022/08/23 02:15:44;;;;;;;8.40;5.95;;;;;;;16.93;100.00;96210.38;1715394;83;21025;-82
2022/08/23 02:18:11;;;;;;;7.28;5.70;;;;;;;16.93;100.00;96213.01;1715833;82;21391;-83
2022/08/23 02:20:39;;;;;;;8.73;5.40;;;;;;;16.95;100.00;96217.52;1718342;82;21030;-82
2022/08/23 02:23:05;;;;;;;7.67;5.97;;;;;;;16.94;100.00;96218.54;1710217;82;21080;-83
2022/08/23 02:25:31;;;;;;;6.90;4.85;;;;;;;16.94;100.00;96215.41;1711581;82;21029;-83
2022/08/23 02:27:57;;;;;;;5.45;3.83;;;;;;;16.94;100.00;96215.41;1720508;82;21352;-82
2022/08/23 02:30:22;;;;;;;5.60;4.05;;;;;;;16.96;100.00;96214.66;1718321;82;21040;-83
2022/08/23 02:32:48;;;;;;;4.90;3.60;;;;;;;16.95;100.00;96215.69;1710061;82;20973;-83
2022/08/23 02:35:14;;;;;;;4.53;4.12;;;;;;;16.95;100.00;96221.45;1724329;82;21356;-82
2022/08/23 02:37:40;;;;;;;4.75;3.77;;;;;;;16.96;100.00;96220.42;1720013;82;20953;-83
2022/08/23 02:40:06;;;;;;;5.10;4.00;;;;;;;16.95;100.00;96226.70;1716650;82;21072;-83
2022/08/23 02:42:33;;;;;;;7.00;4.30;;;;;;;16.93;100.00;96222.19;1722147;82;21000;-83
2022/08/23 02:44:59;;;;;;;4.85;4.33;;;;;;;16.91;100.00;96224.22;1719043;82;21037;-83
2022/08/23 02:47:24;;;;;;;7.08;5.03;;;;;;;16.89;100.00;96222.33;1724742;82;21040;-83
2022/08/23 02:49:53;;;;;;;6.05;5.45;;;;;;;16.86;100.00;96226.20;1709118;82;21039;-83
2022/08/23 02:52:19;;;;;;;5.55;4.90;;;;;;;16.84;100.00;96219.59;1714207;82;20986;-83
2022/08/23 02:54:45;;;;;;;6.17;5.10;;;;;;;16.83;100.00;96217.48;1718350;82;20996;-82
2022/08/23 02:57:10;;;;;;;6.22;5.30;;;;;;;16.79;100.00;96215.02;1722462;82;21017;-83
2022/08/23 02:59:37;;;;;;;7.35;4.30;;;;;;;16.77;100.00;96221.81;1705382;82;21012;-83
2022/08/23 03:02:03;;;;;;;6.58;4.78;;;;;;;16.73;100.00;96221.95;1714192;82;21410;-82
2022/08/23 03:04:29;;;;;;;5.87;5.17;;;;;;;16.70;100.00;96222.41;1720986;82;20995;-83
2022/08/23 03:06:55;;;;;;;6.83;5.55;;;;;;;16.68;100.00;96227.08;1721911;82;21013;-83
2022/08/23 03:09:21;;;;;;;6.05;5.37;;;;;;;16.70;100.00;96228.16;1716225;82;21010;-83
2022/08/23 03:11:48;;;;;;;11.15;5.92;;;;;;;16.68;100.00;96228.38;1725413;81;21052;-82
2022/08/23 03:14:14;;;;;;;6.22;5.60;;;;;;;16.68;100.00;96230.21;1723821;81;21076;-83
2022/08/23 03:16:40;;;;;;;7.58;5.85;;;;;;;16.67;100.00;96228.61;1732102;81;21028;-83
2022/08/23 03:19:06;;;;;;;7.97;5.62;;;;;;;16.69;100.00;96238.37;1730496;81;20977;-82
2022/08/23 03:21:31;;;;;;;8.25;5.53;;;;;;;16.69;100.00;96244.41;1734316;81;20976;-83
2022/08/23 03:23:58;;;;;;;7.37;5.10;;;;;;;16.70;100.00;96239.97;1732923;81;21013;-82
2022/08/23 03:26:23;;;;;;;6.33;4.80;;;;;;;16.72;100.00;96244.48;1720941;81;21482;-83
2022/08/23 03:28:50;;;;;;;5.25;4.35;;;;;;;16.72;100.00;96241.85;1722820;82;21055;-82
2022/08/23 03:31:16;;;;;;;5.78;3.98;;;;;;;16.71;100.00;96236.31;1726072;81;20988;-83
2022/08/23 03:33:42;;;;;;;10.32;5.45;;;;;;;16.70;100.00;96247.33;1716233;82;20991;-83
2022/08/23 03:36:09;;;;;;;7.28;5.10;;;;;;;16.69;100.00;96244.41;1734392;81;20969;-83
2022/08/23 03:38:35;;;;;;;6.40;3.77;;;;;;;16.68;100.00;96241.50;1732959;81;21023;-83
2022/08/23 03:41:01;;;;;;;5.28;4.20;;;;;;;16.68;100.00;96241.50;1717303;81;21101;-82
2022/08/23 03:43:28;;;;;;;4.62;3.80;;;;;;;16.69;100.00;96242.30;1730323;81;21013;-83
2022/08/23 03:45:53;;;;;;;4.47;4.00;;;;;;;16.68;100.00;96242.81;1721015;81;21378;-83
2022/08/23 03:48:19;;;;;;;5.28;4.12;;;;;;;16.69;100.00;96242.30;1730057;81;21066;-83
2022/08/23 03:50:45;;;;;;;4.50;3.92;;;;;;;16.70;100.00;96239.45;1716778;81;21031;-84
2022/08/23 03:53:11;;;;;;;3.98;3.67;;;;;;;16.71;100.00;96238.42;1719288;81;20965;-82
2022/08/23 03:55:39;;;;;;;6.95;3.83;;;;;;;16.73;100.00;96238.20;1717310;81;20999;-82
2022/08/23 03:58:05;;;;;;;5.40;3.83;;;;;;;16.71;100.00;96237.12;1727993;81;21341;-83
2022/08/23 04:00:30;;;;;;;3.85;3.37;;;;;;;16.70;100.00;96234.20;1730635;81;21020;-82
2022/08/23 04:02:56;;;;;;;4.97;3.40;;;;;;;16.69;100.00;96239.16;1730621;81;20979;-83
2022/08/23 04:05:22;;;;;;;4.28;3.30;;;;;;;16.68;100.00;96244.64;1726185;81;21431;-83
2022/08/23 04:07:48;;;;;;;4.87;3.65;;;;;;;16.68;100.00;96241.50;1731212;81;21371;-83
2022/08/23 04:10:14;;;;;;;5.75;3.50;;;;;;;16.68;100.00;96242.81;1719752;81;21049;-82
2022/08/23 04:12:41;;;;;;;3.87;3.25;;;;;;;16.67;100.00;96246.46;1709060;82;20933;-82
2022/08/23 04:15:08;;;;;;;5.12;3.15;;;;;;;16.67;100.00;96250.91;1705715;82;21035;-83
2022/08/23 04:17:35;;;;;;;6.12;3.30;;;;;;;16.66;100.00;96246.14;1732636;81;21545;-83
2022/08/23 04:20:04;;;;;;;5.00;3.22;;;;;;;16.68;100.00;96247.27;1728350;81;21084;-83
2022/08/23 04:22:30;;;;;;;3.92;3.42;;;;;;;16.71;100.00;96253.37;1731748;81;20968;-83
2022/08/23 04:24:56;;;;;;;3.95;2.92;;;;;;;16.73;100.00;96251.32;1710134;81;22059;-83
2022/08/23 04:27:21;;;;;;;5.15;2.65;;;;;;;16.75;100.00;96255.31;1732693;81;20941;-82
2022/08/23 04:29:47;;;;;;;6.67;3.55;;;;;;;16.79;100.00;96261.74;1730952;81;20985;-83
2022/08/23 04:32:14;;;;;;;5.30;2.92;;;;;;;16.80;100.00;96259.92;1728438;82;20952;-83
2022/08/23 04:34:41;;;;;;;3.70;2.60;;;;;;;16.82;100.00;96261.00;1732161;80;21085;-82
2022/08/23 04:37:08;;;;;;;4.42;2.90;;;;;;;16.85;100.00;96253.98;1706904;81;20983;-83
2022/08/23 04:42:16;;;;;;;3.62;2.65;;;;;;;16.88;100.00;96254.34;1724029;81;21142;-83
2022/08/23 04:42:17;;;;;;;6.20;3.00;;;;;;;16.93;100.00;96252.38;1696511;82;21065;-82
2022/08/23 04:44:43;;;;;;;2.60;2.40;;;;;;;16.99;100.00;96255.41;1707788;81;20970;-83
2022/08/23 04:47:09;;;;;;;3.83;2.40;;;;;;;17.03;100.00;96258.66;1726325;80;20970;-83
2022/08/23 04:49:35;;;;;;;4.47;2.47;;;;;;;17.07;100.00;96261.63;1729563;81;20954;-83
2022/08/23 04:52:01;;;;;;;6.15;2.65;;;;;;;17.09;100.00;96269.59;1728043;80;20992;-83
2022/08/23 04:54:27;;;;;;;4.60;2.98;;;;;;;17.11;100.00;96273.30;1711580;81;20972;-83
2022/08/23 04:56:53;;;;;;;4.78;2.65;;;;;;;17.14;100.00;96268.91;1686926;82;21030;-83
2022/08/23 04:59:19;;;;;;;3.10;2.80;;;;;;;17.15;100.00;96269.70;1715678;82;20969;-83
2022/08/23 05:01:45;;;;;;;3.85;3.52;;;;;;;17.16;100.00;96272.61;1712454;82;21033;-83
2022/08/23 05:04:11;;;;;;;4.72;3.10;;;;;;;17.17;100.00;96271.07;1700291;83;21041;-83
2022/08/23 05:06:37;;;;;;;3.85;3.17;;;;;;;17.18;100.00;96274.50;1733331;80;21028;-83
2022/08/23 05:09:03;;;;;;;11.03;4.03;;;;;;;17.18;100.00;96278.44;1723134;81;21363;-83
2022/08/23 05:11:29;;;;;;;9.43;3.17;;;;;;;17.16;100.00;96270.78;1718557;81;21051;-82
2022/08/23 05:13:55;;;;;;;5.72;3.05;;;;;;;17.16;100.00;96266.05;1689978;82;21065;-83
2022/08/23 05:16:21;;;;;;;3.15;2.60;;;;;;;17.17;100.00;96270.27;1705972;82;21010;-83
2022/08/23 05:18:47;;;;;;;5.90;2.77;;;;;;;17.16;100.00;96274.73;1721220;81;20940;-82
2022/08/23 05:21:15;;;;;;;5.08;3.10;;;;;;;17.17;100.00;96278.95;1697828;83;21317;-82
2022/08/23 05:23:41;;;;;;;3.65;2.58;;;;;;;17.17;100.00;96279.46;1715263;82;20930;-83
2022/08/23 05:26:07;;;;;;;4.55;2.45;;;;;;;17.20;100.00;96282.95;1698717;84;21060;-83
2022/08/23 05:28:33;;;;;;;4.50;3.10;;;;;;;17.20;100.00;96282.95;1736905;81;20932;-83
2022/08/23 05:31:08;;;;;;;3.58;2.67;;;;;;;17.24;100.00;96285.41;1721447;83;20999;-83
2022/08/23 05:33:34;;;;;;;5.28;4.75;;;;;;;17.28;100.00;96289.20;1710501;82;21046;-83
2022/08/23 05:36:01;;;;;;;4.20;3.25;;;;;;;17.34;100.00;96291.70;1686857;83;21039;-83
2022/08/23 05:38:27;;;;;;;5.72;3.27;;;;;;;17.37;100.00;96292.56;1676677;84;21029;-83
2022/08/23 05:40:54;;;;;;;5.10;4.10;;;;;;;17.39;100.00;96297.59;1730240;81;21602;-83
2022/08/23 05:43:21;;;;;;;5.55;4.97;;;;;;;17.40;100.00;96292.11;1703448;83;21014;-83
2022/08/23 05:45:46;;;;;;;7.28;4.12;;;;;;;17.46;100.00;96294.88;1680810;84;21077;-82
2022/08/23 05:48:14;;;;;;;6.00;5.03;;;;;;;17.48;100.00;96295.45;1712166;82;20982;-82
2022/08/23 05:50:40;;;;;;;6.53;5.92;;;;;;;17.53;100.00;96296.87;1738794;81;20956;-81
2022/08/23 05:53:06;;;;;;;6.28;3.05;;;;;;;17.56;100.00;96305.60;1707883;82;21001;-83
2022/08/23 05:55:32;;;;;;;6.97;4.83;;;;;;;17.59;100.00;96310.42;1677619;84;21425;-83
2022/08/23 05:57:59;;;;;;;7.12;4.30;;;;;;;17.60;100.00;96314.14;1700750;82;20990;-82
2022/08/23 06:00:24;;;;;;;7.90;5.97;;;;;;;17.62;100.00;96323.91;1711688;82;21381;-83
2022/08/23 06:02:50;;;;;;;8.35;7.53;;;;;;;17.65;100.00;96326.59;1689330;84;21002;-83
2022/08/23 06:05:16;;;;;;;8.70;7.78;;;;;;;17.67;100.00;96329.27;1714522;82;20978;-82
2022/08/23 06:07:42;;;;;;;7.50;6.33;;;;;;;17.73;100.00;96329.41;1737831;82;21312;-82
2022/08/23 06:10:08;;;;;;;9.55;5.78;;;;;;;17.78;100.00;96326.41;1704858;82;21482;-82
2022/08/23 06:12:34;;;;;;;9.00;7.75;;;;;;;17.81;100.00;96327.25;1720962;81;20910;-82
2022/08/23 06:15:00;;;;;;;9.20;8.20;;;;;;;17.83;100.00;96333.08;1694083;83;21088;-82
2022/08/23 06:17:27;;;;;;;8.43;7.53;;;;;;;17.88;100.00;96329.76;1685201;83;21449;-82
2022/08/23 06:19:53;;;;;;;8.50;6.90;;;;;;;17.86;100.00;96330.50;1725678;82;21011;-82
2022/08/23 06:22:19;;;;;;;7.30;6.55;;;;;;;17.86;100.00;96327.36;1714646;82;21022;-82
2022/08/23 06:24:46;;;;;;;6.78;6.00;;;;;;;17.89;100.00;96330.84;1707599;82;21051;-83
2022/08/23 06:27:12;;;;;;;7.30;6.30;;;;;;;17.94;100.00;96332.29;1710478;82;21021;-82
2022/08/23 06:29:38;;;;;;;9.80;7.10;;;;;;;18.00;100.00;96328.73;1716758;82;20970;-82
2022/08/23 06:32:05;;;;;;;7.75;7.00;;;;;;;18.08;100.00;96332.86;1705652;83;21408;-82
2022/08/23 06:34:36;;;;;;;8.30;7.12;;;;;;;18.13;100.00;96340.05;1730442;81;20979;-82
2022/08/23 06:37:11;;;;;;;10.48;9.10;;;;;;;18.17;100.00;96343.30;1694241;82;21052;-82
2022/08/23 06:39:37;;;;;;;10.25;9.15;;;;;;;18.23;100.00;96346.86;1699337;83;21003;-81
2022/08/23 06:42:10;;;;;;;14.70;9.18;;;;;;;18.20;100.00;96350.72;1686413;83;20991;-83
2022/08/23 06:44:36;;;;;;;12.58;9.58;;;;;;;18.24;100.00;96352.40;1723748;81;21010;-82
2022/08/23 06:47:02;;;;;;;12.23;10.60;;;;;;;18.23;100.00;96356.86;1695146;83;21043;-83
2022/08/23 06:49:28;;;;;;;13.80;11.60;;;;;;;18.24;100.00;96357.66;1686595;84;20983;-83
2022/08/23 06:51:56;;;;;;;10.98;9.73;;;;;;;18.25;100.00;96360.57;1714101;82;20962;-82
2022/08/23 06:54:25;;;;;;;14.53;11.65;;;;;;;18.24;100.00;96362.92;1708955;82;21456;-83
2022/08/23 06:56:50;;;;;;;13.13;10.82;;;;;;;18.21;100.00;96362.04;1699955;82;21014;-83
2022/08/23 06:59:17;;;;;;;13.80;11.53;;;;;;;18.21;100.00;96360.20;1723740;82;20979;-83
2022/08/23 07:01:55;;;;;;;12.33;11.03;;;;;;;18.21;100.00;96358.89;1707206;82;20971;-83
2022/08/23 07:04:28;;;;;;;17.02;12.58;;;;;;;18.23;100.00;96363.95;1708198;82;21047;-83
2022/08/23 07:06:55;;;;;;;14.93;12.53;;;;;;;18.27;100.00;96363.77;1701878;82;20995;-82
2022/08/23 07:09:20;;;;;;;14.40;12.10;;;;;;;18.26;100.00;96356.39;1713536;82;21350;-83
2022/08/23 07:11:47;;;;;;;15.32;12.28;;;;;;;18.27;100.00;96360.63;1721958;81;21072;-83
2022/08/23 07:14:16;;;;;;;13.95;10.88;;;;;;;18.27;100.00;96364.56;1722600;81;20993;-83
2022/08/23 07:16:47;;;;;;;14.30;11.10;;;;;;;18.31;100.00;96366.22;1722752;82;20973;-83
2022/08/23 07:19:14;;;;;;;15.40;11.55;;;;;;;18.34;100.00;96372.33;1725062;81;20997;-82
2022/08/23 07:21:41;;;;;;;12.63;10.48;;;;;;;18.34;100.00;96368.89;1722401;81;21100;-83
2022/08/23 07:24:08;;;;;;;13.65;10.58;;;;;;;18.35;100.00;96375.23;1731456;81;21406;-83
2022/08/23 07:26:34;;;;;;;14.28;11.43;;;;;;;18.38;100.00;96373.45;1699224;83;20972;-83
2022/08/23 07:29:00;;;;;;;14.68;12.78;;;;;;;18.44;100.00;96373.07;1707413;83;21694;-83
2022/08/23 07:31:29;;;;;;;17.92;13.45;;;;;;;18.49;100.00;96375.28;1656267;84;20959;-82
2022/08/23 07:34:00;;;;;;;16.17;12.85;;;;;;;18.58;100.00;96380.48;1699759;82;21014;-83
2022/08/23 07:36:26;;;;;;;16.10;13.15;;;;;;;18.60;100.00;96377.10;1670887;82;20994;-82
2022/08/23 07:38:52;;;;;;;16.45;13.45;;;;;;;18.65;100.00;96384.32;1697128;82;21028;-83
2022/08/23 07:41:18;;;;;;;16.37;13.03;;;;;;;18.72;100.00;96376.31;1685784;82;21513;-83
2022/08/23 07:43:44;;;;;;;14.38;12.40;;;;;;;18.74;100.00;96378.20;1705388;82;21018;-83
2022/08/23 07:46:10;;;;;;;13.93;12.15;;;;;;;18.70;100.00;96380.47;1705721;83;21021;-83
2022/08/23 07:48:36;;;;;;;15.28;12.30;;;;;;;18.71;100.00;96385.21;1707054;83;21442;-83
2022/08/23 07:51:05;;;;;;;14.47;12.60;;;;;;;18.71;100.00;96378.63;1705973;83;21080;-84
2022/08/23 07:53:31;;;;;;;14.07;11.95;;;;;;;18.72;100.00;96384.20;1707052;83;20941;-83
2022/08/23 07:55:57;;;;;;;15.75;12.82;;;;;;;18.77;100.00;96378.52;1704085;83;21339;-83
2022/08/23 07:58:23;;;;;;;14.15;12.63;;;;;;;18.85;100.00;96379.97;1708518;83;21020;-83
2022/08/23 08:00:51;;;;;;;14.03;12.33;;;;;;;18.95;100.00;96372.28;1714556;82;20973;-83
2022/08/23 08:03:16;;;;;;;13.48;11.97;;;;;;;19.02;100.00;96378.20;1681964;82;20978;-83
2022/08/23 08:05:42;;;;;;;14.13;12.60;;;;;;;19.05;100.00;96384.33;1705009;83;20967;-83
2022/08/23 08:08:08;;;;;;;13.83;12.43;;;;;;;19.09;100.00;96387.30;1709195;82;21019;-83
2022/08/23 08:10:37;;;;;;;13.68;11.75;;;;;;;19.13;100.00;96381.83;1701151;83;21098;-83
2022/08/23 08:13:04;;;;;;;15.72;12.45;;;;;;;19.16;100.00;96382.67;1695710;81;21456;-83
2022/08/23 08:15:29;;;;;;;13.22;11.48;;;;;;;19.17;100.00;96387.70;1727430;81;21011;-83
2022/08/23 08:17:55;;;;;;;12.50;11.10;;;;;;;19.22;100.00;96387.53;1727876;81;20982;-83
2022/08/23 08:20:21;;;;;;;12.33;10.48;;;;;;;19.23;100.00;96393.88;1731869;81;20995;-83
2022/08/23 08:22:47;;;;;;;12.37;11.08;;;;;;;19.24;100.00;96396.80;1706443;83;20967;-83
2022/08/23 08:25:14;;;;;;;13.45;11.50;;;;;;;19.25;100.00;96402.34;1719114;81;21468;-83
2022/08/23 08:27:41;;;;;;;12.40;10.80;;;;;;;19.25;100.00;96401.55;1697655;82;21381;-83
2022/08/23 08:30:09;;;;;;;14.90;11.75;;;;;;;19.25;100.00;96408.93;1725286;81;20951;-82
2022/08/23 08:32:35;;;;;;;15.70;11.83;;;;;;;19.26;100.00;96410.53;1717805;82;21354;-83
2022/08/23 08:35:01;;;;;;;13.60;10.95;;;;;;;19.22;100.00;96410.72;1718289;81;21004;-83
2022/08/23 08:37:28;;;;;;;12.88;11.33;;;;;;;19.23;100.00;96420.73;1725731;81;21034;-83
2022/08/23 08:39:53;;;;;;;13.35;11.03;;;;;;;19.23;100.00;96420.22;1729549;81;21029;-83
2022/08/23 08:42:34;;;;;;;12.30;11.05;;;;;;;19.23;100.00;96419.42;1726914;81;21014;-83
2022/08/23 08:45:24;;;;;;;13.00;11.55;;;;;;;19.23;100.00;96422.86;1727339;81;20991;-83
2022/08/23 08:48:08;;;;;;;14.13;10.80;;;;;;;19.26;100.00;96426.85;1726669;82;20992;-83
2022/08/23 08:50:51;;;;;;;12.13;10.93;;;;;;;19.28;100.00;96428.21;1724828;81;20986;-83
2022/08/23 08:53:40;;;;;;;13.83;10.53;;;;;;;19.34;100.00;96430.41;1725499;81;20986;-83
2022/08/23 08:56:31;;;;;;;11.45;10.28;;;;;;;19.37;100.00;96439.98;1722916;82;21062;-83
2022/08/23 08:59:03;;;;;;;12.63;11.22;;;;;;;19.41;100.00;96436.36;1723509;81;21350;-83
2022/08/23 09:01:30;;;;;;;12.63;11.33;;;;;;;19.51;100.00;96439.16;1735073;81;20988;-83
2022/08/23 09:03:55;;;;;;;12.47;11.18;;;;;;;19.57;100.00;96434.30;1694322;81;21043;-82
2022/08/23 09:06:46;;;;;;;11.80;10.60;;;;;;;19.62;100.00;96431.75;1717427;81;21403;-82
2022/08/23 09:09:26;;;;;;;11.05;9.95;;;;;;;19.71;100.00;96439.56;1750353;81;21064;-83
2022/08/23 09:12:03;;;;;;;11.25;10.10;;;;;;;19.77;100.00;96434.65;1705534;83;21127;-83
2022/08/23 09:14:47;;;;;;;13.15;11.45;;;;;;;19.88;100.00;96437.47;1722056;81;21371;-83
2022/08/23 09:17:36;;;;;;;11.73;10.53;;;;;;;19.96;100.00;96439.17;1702118;82;21087;-83
2022/08/23 09:20:06;;;;;;;11.93;10.63;;;;;;;20.08;100.00;96443.06;1710690;82;21152;-83
2022/08/23 09:22:41;;;;;;;11.48;10.28;;;;;;;20.20;100.00;96437.70;1739585;81;20976;-83
2022/08/23 09:25:10;;;;;;;12.07;10.50;;;;;;;20.28;100.00;96432.81;1748017;80;21035;-84
2022/08/23 09:27:38;;;;;;;10.78;9.68;;;;;;;20.26;100.00;96438.05;1715977;81;21075;-83
2022/08/23 09:30:05;;;;;;;11.15;9.65;;;;;;;20.30;100.00;96439.16;1719453;82;20999;-83
2022/08/23 09:32:36;;;;;;;9.93;8.95;;;;;;;20.41;100.00;96444.08;1707479;84;20979;-83
2022/08/23 09:35:21;;;;;;;11.15;9.95;;;;;;;20.44;100.00;96443.63;1707457;82;20967;-82
2022/08/23 09:38:05;;;;;;;10.65;9.20;;;;;;;20.48;100.00;96442.09;1722340;82;20948;-83
2022/08/23 09:40:37;;;;;;;12.98;10.75;;;;;;;20.52;100.00;96437.42;1724966;83;20956;-82
2022/08/23 09:43:14;;;;;;;12.35;10.75;;;;;;;20.57;100.00;96443.28;1701135;82;20971;-83
2022/08/23 09:45:51;;;;;;;12.20;10.32;;;;;;;20.59;100.00;96448.59;1717232;83;21127;-82
2022/08/23 09:48:38;;;;;;;16.45;10.82;;;;;;;20.60;100.00;96448.07;1692333;82;21385;-82
2022/08/23 09:51:25;;;;;;;12.78;10.23;;;;;;;20.58;100.00;96447.00;1709793;82;21354;-82
2022/08/23 09:54:13;;;;;;;13.83;10.75;;;;;;;20.64;100.00;96449.17;1719521;82;21023;-82
2022/08/23 09:56:43;;;;;;;10.72;9.63;;;;;;;20.64;100.00;96451.30;1717574;83;21429;-81
2022/08/23 09:59:44;;;;;;;14.30;11.18;;;;;;;20.69;100.00;96451.91;1713269;83;20996;-82
2022/08/23 10:02:26;;;;;;;11.88;10.63;;;;;;;20.68;100.00;96455.07;1689886;83;21003;-82
2022/08/23 10:05:00;;;;;;;11.60;10.25;;;;;;;20.68;100.00;96462.98;1721152;82;20984;-82
2022/08/23 10:07:38;;;;;;;11.28;10.13;;;;;;;20.63;100.00;96460.26;1703315;82;21039;-82
2022/08/23 10:10:45;;;;;;;12.75;10.40;;;;;;;20.62;100.00;96461.30;1705608;82;21102;-82
2022/08/23 10:13:10;;;;;;;12.28;10.55;;;;;;;20.64;100.00;96464.49;1697254;82;21011;-82
2022/08/23 10:15:56;;;;;;;13.38;11.68;;;;;;;20.59;100.00;96462.31;1705361;83;21377;-82
2022/08/23 10:18:58;;;;;;;13.83;11.78;;;;;;;20.53;100.00;96466.73;1701412;82;20991;-82
2022/08/23 10:21:53;;;;;;;12.30;9.98;;;;;;;20.52;100.00;96473.58;1710647;82;21079;-82
2022/08/23 10:24:44;;;;;;;13.20;10.32;;;;;;;20.49;100.00;96470.88;1701957;83;21015;-82
2022/08/23 10:30:17;;;;;;;11.65;10.45;;;;;;;20.41;100.00;96478.38;1705924;83;21007;-83
2022/08/23 10:33:13;;;;;;;14.95;10.55;;;;;;;20.39;100.00;96478.63;1706905;83;21144;-82
2022/08/23 10:35:58;;;;;;;12.47;11.18;;;;;;;20.36;100.00;96481.23;1706045;83;21346;-82
2022/08/23 10:38:56;;;;;;;15.10;11.40;;;;;;;20.28;100.00;96477.66;1701855;83;20981;-82
2022/08/23 10:41:49;;;;;;;12.55;10.70;;;;;;;20.17;100.00;96483.02;1710160;81;21008;-82
2022/08/23 10:44:31;;;;;;;14.38;11.22;;;;;;;20.12;100.00;96482.42;1705979;82;21314;-83
2022/08/23 10:47:27;;;;;;;14.55;11.30;;;;;;;20.09;100.00;96475.79;1719794;82;21040;-82
2022/08/23 10:49:54;;;;;;;12.60;10.98;;;;;;;20.15;100.00;96484.58;1715856;82;21339;-83
2022/08/23 10:52:29;;;;;;;14.63;12.03;;;;;;;20.17;100.00;96484.33;1711877;84;21078;-83
2022/08/23 10:55:05;;;;;;;13.18;11.33;;;;;;;20.19;100.00;96480.96;1714888;82;21031;-84
2022/08/23 10:57:34;;;;;;;14.00;12.58;;;;;;;20.27;100.00;96484.50;1693853;83;21090;-82
2022/08/23 11:00:04;;;;;;;13.05;11.03;;;;;;;20.35;100.00;96483.59;1693756;83;22022;-82
2022/08/23 11:02:49;;;;;;;12.98;11.68;;;;;;;20.44;100.00;96485.84;1718035;82;21027;-83
2022/08/23 11:05:29;;;;;;;15.10;12.73;;;;;;;20.45;100.00;96488.77;1725354;82;21007;-83
2022/08/23 11:08:08;;;;;;;14.78;12.43;;;;;;;20.49;100.00;96496.47;1711253;84;21006;-83
2022/08/23 11:10:47;;;;;;;14.55;13.05;;;;;;;20.48;100.00;96496.19;1719062;82;21023;-83
2022/08/23 11:13:25;;;;;;;14.45;12.93;;;;;;;20.52;100.00;96501.30;1735831;81;21035;-82
2022/08/23 11:16:14;;;;;;;14.03;12.58;;;;;;;20.48;100.00;96500.95;1703785;82;21047;-83
2022/08/23 11:18:48;;;;;;;13.03;11.65;;;;;;;20.45;100.00;96504.08;1736263;81;20975;-81
2022/08/23 11:21:32;;;;;;;13.88;12.28;;;;;;;20.47;100.00;96500.67;1754615;81;20962;-83
2022/08/23 11:24:03;;;;;;;13.80;12.03;;;;;;;20.46;100.00;96503.55;1761249;81;20921;-83
2022/08/23 11:26:41;;;;;;;14.70;13.13;;;;;;;20.48;100.00;96504.11;1729871;82;21378;-83
2022/08/23 11:29:26;;;;;;;12.63;11.33;;;;;;;20.56;100.00;96503.72;1738029;81;21014;-82
2022/08/23 11:32:21;;;;;;;13.32;11.70;;;;;;;20.65;100.00;96502.25;1707279;82;21443;-82
2022/08/23 11:34:59;;;;;;;14.73;13.20;;;;;;;20.70;100.00;96502.34;1723458;82;20979;-82
2022/08/23 11:37:29;;;;;;;15.70;13.55;;;;;;;20.81;100.00;96510.67;1729849;82;21003;-83
2022/08/23 11:40:01;;;;;;;15.48;13.58;;;;;;;20.87;99.85;96513.67;1724995;81;21048;-83
2022/08/23 11:42:45;;;;;;;14.15;12.50;;;;;;;20.93;99.06;96510.05;1737251;81;21003;-83